createdAt,value
2018-09-01T00:02:06.823Z,16.27
2018-09-01T00:05:10.481Z,16.20
2018-09-01T00:08:13.600Z,16.23
2018-09-01T00:11:17.077Z,16.21
2018-09-01T00:14:20.230Z,16.25
2018-09-01T00:17:28.884Z,16.17
2018-09-01T00:20:32.168Z,16.05
2018-09-01T00:23:36.513Z,16.01
2018-09-01T00:26:41.751Z,16.09
2018-09-01T00:29:45.020Z,16.15
2018-09-01T00:32:48.205Z,16.11
2018-09-01T00:35:51.647Z,16.05
2018-09-01T00:39:00.203Z,15.94
2018-09-01T00:42:03.417Z,15.87
2018-09-01T00:45:06.652Z,15.82
2018-09-01T00:48:10.480Z,15.79
2018-09-01T00:51:20.745Z,15.86
2018-09-01T00:54:24.018Z,15.81
2018-09-01T00:57:27.311Z,15.71
2018-09-01T01:00:30.615Z,15.60
2018-09-01T01:03:33.902Z,15.40
2018-09-01T01:06:37.186Z,15.30
2018-09-01T01:09:43.622Z,15.33
2018-09-01T01:12:47.903Z,15.28
2018-09-01T01:15:51.183Z,15.28
2018-09-01T01:18:57.959Z,15.26
2018-09-01T01:22:01.252Z,15.31
2018-09-01T01:25:05.112Z,15.33
2018-09-01T01:28:08.459Z,15.38
2018-09-01T01:31:12.756Z,15.39
2018-09-01T01:34:15.982Z,15.33
2018-09-01T01:37:19.375Z,15.30
2018-09-01T01:40:22.594Z,15.26
2018-09-01T01:43:25.888Z,15.27
2018-09-01T01:46:29.040Z,15.26
2018-09-01T01:49:32.338Z,15.33
2018-09-01T01:52:35.599Z,15.26
2018-09-01T01:55:38.937Z,15.26
2018-09-01T01:58:43.182Z,15.31
2018-09-01T02:01:46.555Z,15.24
2018-09-01T02:04:51.849Z,15.10
2018-09-01T02:07:55.118Z,15.14
2018-09-01T02:10:59.441Z,14.98
2018-09-01T02:14:02.650Z,14.91
2018-09-01T02:17:05.965Z,14.82
2018-09-01T02:20:09.280Z,14.84
2018-09-01T02:23:13.072Z,14.76
2018-09-01T02:26:16.346Z,14.83
2018-09-01T02:29:19.719Z,14.77
2018-09-01T02:32:23.071Z,14.77
2018-09-01T02:35:26.354Z,14.71
2018-09-01T02:38:30.685Z,14.67
2018-09-01T02:41:34.005Z,14.72
2018-09-01T02:44:37.263Z,14.62
2018-09-01T02:47:41.628Z,14.70
2018-09-01T02:50:44.807Z,14.65
2018-09-01T02:53:52.277Z,14.51
2018-09-01T02:56:55.569Z,14.50
2018-09-01T02:59:58.876Z,14.33
2018-09-01T03:03:02.009Z,14.39
2018-09-01T03:06:07.298Z,14.30
2018-09-01T03:09:11.426Z,14.26
2018-09-01T03:12:14.712Z,14.24
2018-09-01T03:15:17.916Z,14.23
2018-09-01T03:18:22.223Z,14.15
2018-09-01T03:21:25.435Z,14.01
2018-09-01T03:24:30.774Z,14.07
2018-09-01T03:27:33.959Z,14.07
2018-09-01T03:30:41.456Z,14.04
2018-09-01T03:33:44.650Z,13.95
2018-09-01T03:36:47.990Z,13.94
2018-09-01T03:39:51.338Z,13.98
2018-09-01T03:42:54.716Z,13.71
2018-09-01T03:45:57.964Z,13.64
2018-09-01T03:49:02.320Z,13.61
2018-09-01T03:52:05.693Z,13.72
2018-09-01T03:55:08.964Z,13.67
2018-09-01T03:58:13.232Z,13.68
2018-09-01T04:01:16.474Z,13.68
2018-09-01T04:04:19.831Z,13.66
2018-09-01T04:07:23.074Z,13.55
2018-09-01T04:10:26.400Z,13.39
2018-09-01T04:13:29.687Z,13.37
2018-09-01T04:16:33.049Z,13.48
2018-09-01T04:19:43.184Z,13.47
2018-09-01T04:22:46.681Z,13.46
2018-09-01T04:25:49.935Z,13.47
2018-09-01T04:28:53.222Z,13.42
2018-09-01T04:31:56.608Z,13.43
2018-09-01T04:34:59.815Z,13.42
2018-09-01T04:38:03.145Z,13.17
2018-09-01T04:41:06.433Z,13.04
2018-09-01T04:44:10.669Z,13.08
2018-09-01T04:47:13.955Z,13.05
2018-09-01T04:50:17.256Z,13.00
2018-09-01T04:53:20.545Z,12.90
2018-09-01T04:56:23.820Z,12.84
2018-09-01T04:59:28.142Z,12.97
2018-09-01T05:02:31.314Z,13.02
2018-09-01T05:05:34.676Z,13.01
2018-09-01T05:08:37.951Z,13.07
2018-09-01T05:11:41.987Z,13.06
2018-09-01T05:14:45.147Z,13.15
2018-09-01T05:17:48.520Z,13.20
2018-09-01T05:20:52.813Z,13.20
2018-09-01T05:23:56.084Z,12.98
2018-09-01T05:26:59.395Z,12.93
2018-09-01T05:30:02.755Z,12.93
2018-09-01T05:33:05.887Z,12.94
2018-09-01T05:36:09.286Z,13.05
2018-09-01T05:39:13.290Z,13.09
2018-09-01T05:42:16.499Z,13.11
2018-09-01T05:45:19.807Z,13.11
2018-09-01T05:48:23.234Z,13.13
2018-09-01T05:51:26.504Z,13.09
2018-09-01T05:54:29.905Z,13.12
2018-09-01T05:57:33.162Z,13.11
2018-09-01T06:00:37.674Z,13.14
2018-09-01T06:03:41.606Z,13.30
2018-09-01T06:06:44.802Z,13.42
2018-09-01T06:09:48.215Z,13.39
2018-09-01T06:12:51.499Z,13.33
2018-09-01T06:15:54.823Z,13.36
2018-09-01T06:18:58.091Z,13.42
2018-09-01T06:22:01.286Z,13.43
2018-09-01T06:25:04.920Z,13.57
2018-09-01T06:28:15.304Z,13.55
2018-09-01T06:31:19.526Z,13.73
2018-09-01T06:34:22.840Z,13.77
2018-09-01T06:37:26.133Z,13.84
2018-09-01T06:40:29.387Z,13.96
2018-09-01T06:43:32.550Z,13.94
2018-09-01T06:46:35.863Z,14.05
2018-09-01T06:49:39.077Z,14.35
2018-09-01T06:52:43.355Z,14.48
2018-09-01T06:55:46.692Z,14.67
2018-09-01T06:58:50.371Z,14.92
2018-09-01T07:01:53.748Z,15.10
2018-09-01T07:04:56.999Z,15.31
2018-09-01T07:08:00.299Z,15.35
2018-09-01T07:11:03.644Z,15.23
2018-09-01T07:14:06.987Z,15.13
2018-09-01T07:17:10.749Z,15.17
2018-09-01T07:20:13.987Z,15.23
2018-09-01T07:23:17.163Z,15.39
2018-09-01T07:26:20.369Z,15.44
2018-09-01T07:29:23.622Z,15.62
2018-09-01T07:32:26.887Z,15.69
2018-09-01T07:35:30.168Z,15.76
2018-09-01T07:38:33.554Z,16.01
2018-09-01T07:41:37.107Z,16.05
2018-09-01T07:44:40.814Z,16.01
2018-09-01T07:47:44.062Z,15.93
2018-09-01T07:50:48.271Z,15.97
2018-09-01T07:53:52.524Z,15.99
2018-09-01T07:56:56.829Z,16.10
2018-09-01T08:00:00.167Z,16.19
2018-09-01T08:03:03.355Z,16.28
2018-09-01T08:06:06.624Z,16.24
2018-09-01T08:09:11.865Z,16.27
2018-09-01T08:12:15.163Z,16.56
2018-09-01T08:15:19.499Z,17.01
2018-09-01T08:18:22.783Z,17.25
2018-09-01T08:21:26.092Z,17.34
2018-09-01T08:24:30.392Z,17.33
2018-09-01T08:27:36.007Z,17.41
2018-09-01T08:30:39.276Z,17.53
2018-09-01T08:33:43.723Z,17.64
2018-09-01T08:36:47.436Z,17.57
2018-09-01T08:39:50.675Z,17.88
2018-09-01T08:42:53.878Z,17.98
2018-09-01T08:45:57.167Z,18.10
2018-09-01T08:49:00.480Z,18.23
2018-09-01T08:52:03.780Z,18.14
2018-09-01T08:55:06.907Z,18.26
2018-09-01T08:58:13.868Z,18.27
2018-09-01T09:01:17.036Z,18.48
2018-09-01T09:04:20.347Z,18.64
2018-09-01T09:07:23.556Z,18.81
2018-09-01T09:10:26.978Z,18.91
2018-09-01T09:13:30.513Z,19.22
2018-09-01T09:16:33.719Z,19.27
2018-09-01T09:19:36.912Z,19.16
2018-09-01T09:22:41.292Z,19.12
2018-09-01T09:25:44.551Z,19.25
2018-09-01T09:28:47.971Z,19.40
2018-09-01T09:31:51.268Z,19.55
2018-09-01T09:34:55.580Z,19.65
2018-09-01T09:37:58.979Z,20.17
2018-09-01T09:41:02.101Z,19.86
2018-09-01T09:44:05.480Z,19.97
2018-09-01T09:47:08.763Z,19.74
2018-09-01T09:50:12.587Z,19.65
2018-09-01T09:53:15.745Z,19.51
2018-09-01T09:56:19.052Z,19.50
2018-09-01T09:59:22.357Z,19.57
2018-09-01T10:02:25.609Z,19.52
2018-09-01T10:05:29.005Z,19.62
2018-09-01T10:08:32.263Z,19.57
2018-09-01T10:11:35.492Z,19.45
2018-09-01T10:14:38.745Z,19.54
2018-09-01T10:17:42.069Z,19.62
2018-09-01T10:20:45.231Z,19.61
2018-09-01T10:23:49.705Z,19.57
2018-09-01T10:26:54.128Z,19.55
2018-09-01T10:29:57.380Z,19.77
2018-09-01T10:33:00.752Z,20.09
2018-09-01T10:36:03.988Z,20.20
2018-09-01T10:39:09.375Z,20.23
2018-09-01T10:42:12.531Z,20.31
2018-09-01T10:45:15.823Z,20.44
2018-09-01T10:48:19.263Z,20.52
2018-09-01T10:51:23.094Z,20.73
2018-09-01T10:54:26.201Z,21.00
2018-09-01T10:57:29.559Z,21.39
2018-09-01T11:00:32.856Z,21.26
2018-09-01T11:03:36.168Z,20.93
2018-09-01T11:06:39.400Z,20.62
2018-09-01T11:09:42.623Z,20.60
2018-09-01T11:12:46.980Z,20.37
2018-09-01T11:15:50.329Z,20.41
2018-09-01T11:18:54.645Z,20.46
2018-09-01T11:21:57.868Z,20.42
2018-09-01T11:25:01.165Z,20.54
2018-09-01T11:28:04.718Z,21.13
2018-09-01T11:31:08.181Z,21.27
2018-09-01T11:34:11.498Z,20.98
2018-09-01T11:37:14.756Z,20.86
2018-09-01T11:40:18.125Z,20.83
2018-09-01T11:43:23.021Z,20.87
2018-09-01T11:46:26.284Z,21.35
2018-09-01T11:49:29.578Z,21.72
2018-09-01T11:52:32.887Z,21.95
2018-09-01T11:55:37.244Z,22.23
2018-09-01T11:58:40.661Z,22.32
2018-09-01T12:01:43.921Z,22.03
2018-09-01T12:04:47.205Z,21.84
2018-09-01T12:07:50.490Z,21.69
2018-09-01T12:10:54.921Z,21.46
2018-09-01T12:13:58.090Z,21.34
2018-09-01T12:17:01.435Z,21.16
2018-09-01T12:20:04.772Z,21.19
2018-09-01T12:23:08.137Z,21.34
2018-09-01T12:26:11.324Z,21.33
2018-09-01T12:29:14.620Z,21.46
2018-09-01T12:32:17.898Z,21.64
2018-09-01T12:35:21.268Z,21.56
2018-09-01T12:38:25.187Z,21.44
2018-09-01T12:41:28.480Z,21.43
2018-09-01T12:44:31.800Z,21.60
2018-09-01T12:47:35.130Z,21.75
2018-09-01T12:50:38.267Z,22.05
2018-09-01T12:53:41.640Z,22.43
2018-09-01T12:56:45.919Z,22.81
2018-09-01T12:59:49.304Z,22.95
2018-09-01T13:02:52.588Z,22.79
2018-09-01T13:05:55.889Z,23.05
2018-09-01T13:08:59.110Z,23.03
2018-09-01T13:12:02.440Z,22.73
2018-09-01T13:15:05.702Z,22.34
2018-09-01T13:18:08.986Z,22.24
2018-09-01T13:21:12.142Z,22.05
2018-09-01T13:24:15.386Z,21.80
2018-09-01T13:27:18.639Z,21.71
2018-09-01T13:30:21.986Z,21.87
2018-09-01T13:33:26.229Z,22.10
2018-09-01T13:36:30.575Z,22.31
2018-09-01T13:39:33.822Z,22.89
2018-09-01T13:42:37.149Z,22.63
2018-09-01T13:45:41.469Z,22.33
2018-09-01T13:48:44.743Z,22.72
2018-09-01T13:51:48.068Z,23.03
2018-09-01T13:54:52.999Z,22.88
2018-09-01T13:57:56.301Z,22.61
2018-09-01T14:00:59.481Z,22.49
2018-09-01T14:04:02.967Z,22.75
2018-09-01T14:07:06.494Z,23.15
2018-09-01T14:10:09.790Z,23.45
2018-09-01T14:13:13.087Z,23.45
2018-09-01T14:16:16.383Z,23.24
2018-09-01T14:19:19.681Z,23.03
2018-09-01T14:22:24.706Z,22.75
2018-09-01T14:25:28.764Z,22.61
2018-09-01T14:28:32.116Z,23.11
2018-09-01T14:31:35.564Z,23.50
2018-09-01T14:34:38.831Z,23.82
2018-09-01T14:37:42.136Z,23.83
2018-09-01T14:40:45.384Z,23.82
2018-09-01T14:43:48.712Z,24.08
2018-09-01T14:46:52.032Z,24.07
2018-09-01T14:49:56.637Z,24.49
2018-09-01T14:53:00.030Z,24.85
2018-09-01T14:56:03.327Z,24.96
2018-09-01T14:59:07.694Z,24.62
2018-09-01T15:02:13.016Z,24.67
2018-09-01T15:05:16.447Z,24.24
2018-09-01T15:08:19.949Z,24.49
2018-09-01T15:11:24.246Z,24.60
2018-09-01T15:14:27.599Z,24.28
2018-09-01T15:17:31.003Z,24.26
2018-09-01T15:20:34.325Z,24.29
2018-09-01T15:23:37.771Z,24.57
2018-09-01T15:26:41.147Z,24.52
2018-09-01T15:29:44.451Z,24.85
2018-09-01T15:32:47.714Z,25.34
2018-09-01T15:35:51.011Z,25.60
2018-09-01T15:38:55.314Z,25.30
2018-09-01T15:41:58.651Z,25.51
2018-09-01T15:45:02.126Z,25.40
2018-09-01T15:48:05.423Z,25.31
2018-09-01T15:51:08.591Z,24.80
2018-09-01T15:54:11.927Z,24.81
2018-09-01T15:57:15.196Z,25.01
2018-09-01T16:00:18.549Z,24.65
2018-09-01T16:03:22.069Z,24.55
2018-09-01T16:06:25.349Z,24.84
2018-09-01T16:09:28.706Z,24.99
2018-09-01T16:12:33.031Z,24.86
2018-09-01T16:15:36.334Z,24.48
2018-09-01T16:18:40.680Z,24.19
2018-09-01T16:21:43.859Z,23.93
2018-09-01T16:24:47.148Z,24.09
2018-09-01T16:27:50.480Z,24.17
2018-09-01T16:30:54.580Z,24.03
2018-09-01T16:33:57.847Z,24.04
2018-09-01T16:37:03.364Z,23.87
2018-09-01T16:40:06.829Z,23.74
2018-09-01T16:43:11.050Z,23.76
2018-09-01T16:46:14.436Z,23.61
2018-09-01T16:49:17.800Z,23.48
2018-09-01T16:52:21.153Z,23.38
2018-09-01T16:55:24.427Z,23.37
2018-09-01T16:58:27.629Z,23.32
2018-09-01T17:01:30.952Z,23.19
2018-09-01T17:04:35.311Z,23.14
2018-09-01T17:07:38.525Z,23.10
2018-09-01T17:10:41.842Z,23.06
2018-09-01T17:13:46.490Z,22.93
2018-09-01T17:16:49.870Z,22.85
2018-09-01T17:19:53.245Z,22.78
2018-09-01T17:22:56.388Z,22.74
2018-09-01T17:25:59.652Z,22.72
2018-09-01T17:29:02.964Z,22.67
2018-09-01T17:32:06.450Z,22.62
2018-09-01T17:35:09.751Z,22.54
2018-09-01T17:38:13.056Z,22.48
2018-09-01T17:41:16.601Z,22.40
2018-09-01T17:44:21.197Z,22.36
2018-09-01T17:47:24.497Z,22.30
2018-09-01T17:50:27.768Z,22.17
2018-09-01T17:53:30.928Z,22.01
2018-09-01T17:56:34.545Z,21.86
2018-09-01T17:59:37.795Z,21.77
2018-09-01T18:02:41.202Z,21.70
2018-09-01T18:05:44.457Z,21.58
2018-09-01T18:08:47.804Z,21.46
2018-09-01T18:11:51.131Z,21.36
2018-09-01T18:14:54.360Z,21.29
2018-09-01T18:17:57.679Z,21.17
2018-09-01T18:21:01.300Z,21.06
2018-09-01T18:24:05.513Z,20.97
2018-09-01T18:27:08.883Z,20.93
2018-09-01T18:30:12.073Z,20.91
2018-09-01T18:33:15.595Z,20.90
2018-09-01T18:36:18.893Z,20.86
2018-09-01T18:39:22.159Z,20.76
2018-09-01T18:42:25.495Z,20.74
2018-09-01T18:45:28.659Z,20.66
2018-09-01T18:48:31.964Z,20.57
2018-09-01T18:51:35.168Z,20.57
2018-09-01T18:54:38.475Z,20.60
2018-09-01T18:57:42.860Z,20.64
2018-09-01T19:00:46.183Z,20.60
2018-09-01T19:03:49.315Z,20.48
2018-09-01T19:06:52.560Z,20.44
2018-09-01T19:09:55.884Z,20.45
2018-09-01T19:12:59.168Z,20.40
2018-09-01T19:16:02.449Z,20.31
2018-09-01T19:19:05.775Z,20.25
2018-09-01T19:22:09.793Z,20.22
2018-09-01T19:25:15.124Z,20.18
2018-09-01T19:28:20.251Z,20.15
2018-09-01T19:31:23.559Z,20.13
2018-09-01T19:34:26.757Z,20.04
2018-09-01T19:37:30.100Z,19.93
2018-09-01T19:40:33.403Z,19.82
2018-09-01T19:43:36.631Z,19.83
2018-09-01T19:46:40.807Z,19.89
2018-09-01T19:49:44.101Z,19.95
2018-09-01T19:52:47.448Z,19.92
2018-09-01T19:55:50.747Z,19.93
2018-09-01T19:58:54.076Z,19.85
2018-09-01T20:01:57.351Z,19.72
2018-09-01T20:05:00.695Z,19.59
2018-09-01T20:08:03.836Z,19.49
2018-09-01T20:11:08.121Z,19.33
2018-09-01T20:14:11.861Z,19.24
2018-09-01T20:17:15.190Z,19.20
2018-09-01T20:20:18.468Z,19.23
2018-09-01T20:23:21.757Z,19.16
2018-09-01T20:26:25.036Z,19.10
2018-09-01T20:29:28.380Z,19.01
2018-09-01T20:32:31.649Z,18.87
2018-09-01T20:35:40.453Z,18.82
2018-09-01T20:38:43.988Z,18.93
2018-09-01T20:41:47.269Z,18.99
2018-09-01T20:44:50.594Z,18.96
2018-09-01T20:47:53.900Z,18.95
2018-09-01T20:50:57.165Z,18.96
2018-09-01T20:54:01.494Z,18.82
2018-09-01T20:57:05.814Z,18.78
2018-09-01T21:00:09.103Z,18.79
2018-09-01T21:03:12.439Z,18.75
2018-09-01T21:06:15.707Z,18.63
2018-09-01T21:09:19.004Z,18.59
2018-09-01T21:12:22.332Z,18.56
2018-09-01T21:15:25.590Z,18.52
2018-09-01T21:18:28.793Z,18.47
2018-09-01T21:21:32.099Z,18.44
2018-09-01T21:24:35.394Z,18.35
2018-09-01T21:27:38.703Z,18.29
2018-09-01T21:30:42.319Z,18.22
2018-09-01T21:33:45.583Z,18.20
2018-09-01T21:36:52.198Z,18.13
2018-09-01T21:39:56.568Z,18.13
2018-09-01T21:43:00.087Z,18.11
2018-09-01T21:46:03.392Z,18.04
2018-09-01T21:49:07.806Z,17.97
2018-09-01T21:52:11.088Z,18.00
2018-09-01T21:55:14.312Z,18.00
2018-09-01T21:58:17.623Z,17.98
2018-09-01T22:01:26.254Z,17.92
2018-09-01T22:04:33.662Z,17.82
2018-09-01T22:07:36.910Z,17.72
2018-09-01T22:10:40.111Z,17.77
2018-09-01T22:13:43.423Z,17.74
2018-09-01T22:16:46.700Z,17.70
2018-09-01T22:19:50.529Z,17.69
2018-09-01T22:22:53.703Z,17.71
2018-09-01T22:25:57.012Z,17.71
2018-09-01T22:29:00.411Z,17.66
2018-09-01T22:32:03.687Z,17.64
2018-09-01T22:35:07.732Z,17.63
2018-09-01T22:38:10.983Z,17.53
2018-09-01T22:41:14.317Z,17.47
2018-09-01T22:44:17.813Z,17.39
2018-09-01T22:47:23.900Z,17.37
2018-09-01T22:50:27.175Z,17.38
2018-09-01T22:53:30.323Z,17.35
2018-09-01T22:56:33.555Z,17.31
2018-09-01T22:59:37.298Z,17.25
2018-09-01T23:02:40.561Z,17.24
2018-09-01T23:05:43.863Z,17.17
2018-09-01T23:08:47.281Z,17.07
2018-09-01T23:11:50.785Z,16.98
2018-09-01T23:14:54.090Z,16.88
2018-09-01T23:17:57.384Z,16.87
2018-09-01T23:21:00.644Z,16.93
2018-09-01T23:24:03.980Z,16.90
2018-09-01T23:27:07.272Z,16.86
2018-09-01T23:30:11.570Z,16.86
2018-09-01T23:33:14.869Z,16.90
2018-09-01T23:36:18.503Z,16.97
2018-09-01T23:39:21.791Z,17.00
2018-09-01T23:42:25.121Z,16.96
2018-09-01T23:45:28.355Z,16.92
2018-09-01T23:48:31.692Z,16.90
2018-09-01T23:51:35.200Z,16.88
2018-09-01T23:54:39.488Z,16.82
2018-09-01T23:57:42.794Z,16.72
